Time;durP1;ratioP1;P1;durP2;ratioP2;P2;SDS_P1;SDS_P2;PMS_P1;PMS_P2;Temp;Humidity;BMP_temperature;BMP_pressure;BME280_temperature;BME280_humidity;BME280_pressure;Samples;Min_cycle;Max_cycle;Signal;HPM_P1;HPM_P2
2022/11/08 00:01:31;;;;;;;2.65;1.42;;;;;;;;;;4896509;29;20384;-39
2022/11/08 00:03:57;;;;;;;1.77;1.15;;;;;;;;;;4896191;29;20468;-40
2022/11/08 00:14:34;;;;;;;2.83;1.40;;;;;;;;;;4896288;29;20472;-39
2022/11/08 00:16:59;;;;;;;8.13;1.65;;;;;;;;;;4896221;29;20080;-39
2022/11/08 00:19:25;;;;;;;2.72;1.60;;;;;;;;;;4896465;29;20126;-39
2022/11/08 00:21:50;;;;;;;3.88;2.00;;;;;;;;;;4896512;29;20483;-39
2022/11/08 00:24:15;;;;;;;1.42;0.95;;;;;;;;;;4896206;29;20546;-39
2022/11/08 00:26:41;;;;;;;2.15;1.48;;;;;;;;;;4896321;29;20104;-39
2022/11/08 00:29:06;;;;;;;3.38;1.70;;;;;;;;;;4894878;29;20041;-39
2022/11/08 00:31:31;;;;;;;2.78;1.73;;;;;;;;;;4896216;29;20726;-39
2022/11/08 00:33:57;;;;;;;3.80;1.70;;;;;;;;;;4896129;29;20045;-39
2022/11/08 00:36:22;;;;;;;4.97;1.75;;;;;;;;;;4896413;29;20535;-39
2022/11/08 00:38:47;;;;;;;3.55;1.33;;;;;;;;;;4896291;29;20040;-39
2022/11/08 00:41:13;;;;;;;2.88;1.55;;;;;;;;;;4896103;29;20081;-39
2022/11/08 00:43:38;;;;;;;1.80;1.00;;;;;;;;;;4896238;29;20425;-40
2022/11/08 00:46:04;;;;;;;1.73;1.23;;;;;;;;;;4895988;29;20025;-39
2022/11/08 00:48:29;;;;;;;4.60;1.10;;;;;;;;;;4895952;29;20092;-39
2022/11/08 00:50:54;;;;;;;2.28;1.48;;;;;;;;;;4896166;29;20063;-39
2022/11/08 00:53:20;;;;;;;2.38;1.50;;;;;;;;;;4896140;29;20079;-39
2022/11/08 00:55:45;;;;;;;2.72;2.00;;;;;;;;;;4895796;29;20465;-39
2022/11/08 00:58:11;;;;;;;1.85;1.38;;;;;;;;;;4895953;29;20025;-39
2022/11/08 01:00:36;;;;;;;4.45;1.70;;;;;;;;;;4895946;29;20087;-39
2022/11/08 01:03:20;;;;;;;2.67;1.35;;;;;;;;;;4895782;29;20029;-39
2022/11/08 01:05:46;;;;;;;2.28;1.25;;;;;;;;;;4895702;29;20127;-39
2022/11/08 01:08:11;;;;;;;4.25;1.90;;;;;;;;;;4898574;29;20036;-39
2022/11/08 01:10:44;;;;;;;3.65;2.30;;;;;;;;;;4899389;29;20045;-39
2022/11/08 01:13:10;;;;;;;3.05;1.55;;;;;;;;;;4899378;29;20391;-39
2022/11/08 01:15:39;;;;;;;2.45;1.55;;;;;;;;;;4899269;29;20033;-39
2022/11/08 01:18:05;;;;;;;3.72;1.30;;;;;;;;;;4899497;29;20028;-39
2022/11/08 01:20:30;;;;;;;1.50;1.05;;;;;;;;;;4899194;29;20021;-39
2022/11/08 01:22:56;;;;;;;3.05;1.60;;;;;;;;;;4899014;29;20036;-40
2022/11/08 01:25:21;;;;;;;4.30;1.77;;;;;;;;;;4899160;29;20428;-39
2022/11/08 01:27:47;;;;;;;2.47;1.23;;;;;;;;;;4898961;29;20040;-38
2022/11/08 01:30:12;;;;;;;2.60;1.30;;;;;;;;;;4899162;29;20100;-39
2022/11/08 01:32:38;;;;;;;5.55;1.90;;;;;;;;;;4899004;29;20604;-40
2022/11/08 01:35:03;;;;;;;1.83;1.27;;;;;;;;;;4898924;29;20024;-38
2022/11/08 01:37:29;;;;;;;2.78;1.20;;;;;;;;;;4899160;29;20049;-39
2022/11/08 01:39:54;;;;;;;1.27;1.13;;;;;;;;;;4898821;29;20471;-39
2022/11/08 01:42:26;;;;;;;2.58;1.45;;;;;;;;;;4898784;29;20504;-38
2022/11/08 01:45:08;;;;;;;4.43;1.77;;;;;;;;;;4898678;29;20064;-39
2022/11/08 01:47:33;;;;;;;1.85;1.05;;;;;;;;;;4898654;29;20546;-39
2022/11/08 01:50:01;;;;;;;2.10;1.17;;;;;;;;;;4898822;29;20040;-39
2022/11/08 01:52:30;;;;;;;3.40;1.67;;;;;;;;;;4897262;29;20365;-38
2022/11/08 01:54:55;;;;;;;3.85;1.65;;;;;;;;;;4898680;29;20052;-38
2022/11/08 01:57:26;;;;;;;4.80;1.70;;;;;;;;;;4898599;29;20028;-39
2022/11/08 01:59:53;;;;;;;1.63;1.52;;;;;;;;;;4898668;29;20494;-39
2022/11/08 02:02:19;;;;;;;4.95;1.30;;;;;;;;;;4898797;29;20041;-39
2022/11/08 02:04:44;;;;;;;2.67;1.52;;;;;;;;;;4896892;29;20052;-39
2022/11/08 02:07:11;;;;;;;2.63;0.98;;;;;;;;;;4898612;29;20043;-39
2022/11/08 02:09:38;;;;;;;1.92;1.15;;;;;;;;;;4898321;29;20131;-39
2022/11/08 02:12:05;;;;;;;2.08;1.48;;;;;;;;;;4898220;29;20033;-39
2022/11/08 02:14:30;;;;;;;5.90;1.27;;;;;;;;;;4898157;29;20141;-39
2022/11/08 02:16:55;;;;;;;1.90;1.15;;;;;;;;;;4898143;29;20115;-39
2022/11/08 02:19:35;;;;;;;4.25;1.50;;;;;;;;;;4897514;29;20036;-39
2022/11/08 02:22:02;;;;;;;4.30;2.08;;;;;;;;;;4896763;29;20056;-39
2022/11/08 02:24:28;;;;;;;2.80;1.75;;;;;;;;;;4898364;29;20028;-39
2022/11/08 02:26:54;;;;;;;4.80;1.60;;;;;;;;;;4896631;29;20500;-39
2022/11/08 02:29:25;;;;;;;3.90;1.27;;;;;;;;;;4897908;29;20033;-39
2022/11/08 02:31:51;;;;;;;4.90;1.90;;;;;;;;;;4898080;29;20485;-39
2022/11/08 02:34:16;;;;;;;4.53;1.75;;;;;;;;;;4897849;29;20119;-39
2022/11/08 02:36:45;;;;;;;6.00;2.13;;;;;;;;;;4897722;29;20032;-41
2022/11/08 02:39:10;;;;;;;5.85;2.35;;;;;;;;;;4897850;29;20024;-39
2022/11/08 02:41:36;;;;;;;4.13;2.10;;;;;;;;;;4897731;29;20020;-39
2022/11/08 02:44:01;;;;;;;6.78;2.88;;;;;;;;;;4897919;29;20047;-39
2022/11/08 02:46:26;;;;;;;3.90;1.70;;;;;;;;;;4897595;29;20510;-39
2022/11/08 02:48:52;;;;;;;4.10;2.40;;;;;;;;;;4897400;29;20048;-39
2022/11/08 02:51:17;;;;;;;2.38;1.48;;;;;;;;;;4897591;29;20025;-39
2022/11/08 02:53:43;;;;;;;2.17;1.45;;;;;;;;;;4897365;29;20036;-39
2022/11/08 02:56:08;;;;;;;2.42;1.70;;;;;;;;;;4897417;29;20025;-39
2022/11/08 02:58:34;;;;;;;4.18;2.53;;;;;;;;;;4897746;29;20024;-39
2022/11/08 03:00:59;;;;;;;6.22;1.92;;;;;;;;;;4897407;29;20033;-39
2022/11/08 03:03:25;;;;;;;2.03;1.23;;;;;;;;;;4897354;29;20020;-39
2022/11/08 03:05:50;;;;;;;3.13;1.50;;;;;;;;;;4897128;29;20086;-39
2022/11/08 03:08:16;;;;;;;1.85;1.02;;;;;;;;;;4897134;29;20037;-39
2022/11/08 03:10:41;;;;;;;3.08;1.23;;;;;;;;;;4895878;29;20464;-39
2022/11/08 03:13:07;;;;;;;2.30;1.30;;;;;;;;;;4897172;29;20028;-39
2022/11/08 03:15:33;;;;;;;2.85;1.65;;;;;;;;;;4897084;29;20479;-39
2022/11/08 03:17:59;;;;;;;4.15;1.58;;;;;;;;;;4895985;29;20028;-39
2022/11/08 03:20:24;;;;;;;1.98;1.13;;;;;;;;;;4896973;29;20365;-38
2022/11/08 03:22:56;;;;;;;2.03;0.98;;;;;;;;;;4897246;29;20025;-39
2022/11/08 03:25:21;;;;;;;3.00;1.38;;;;;;;;;;4896931;29;20522;-39
2022/11/08 03:27:47;;;;;;;1.75;1.05;;;;;;;;;;4896887;29;20021;-39
2022/11/08 03:30:12;;;;;;;1.60;1.30;;;;;;;;;;4896272;29;20083;-39
2022/11/08 03:32:37;;;;;;;3.88;1.90;;;;;;;;;;4896779;29;20028;-39
2022/11/08 03:35:03;;;;;;;2.70;1.40;;;;;;;;;;4896745;29;20055;-39
2022/11/08 03:37:28;;;;;;;1.83;1.35;;;;;;;;;;4896890;29;20021;-39
2022/11/08 03:39:54;;;;;;;2.97;1.30;;;;;;;;;;4896626;29;20075;-39
2022/11/08 03:42:19;;;;;;;1.08;0.98;;;;;;;;;;4895458;29;20380;-39
2022/11/08 03:44:45;;;;;;;3.10;1.60;;;;;;;;;;4896441;29;20068;-39
2022/11/08 03:47:10;;;;;;;2.25;1.65;;;;;;;;;;4896603;29;20041;-39
2022/11/08 03:49:36;;;;;;;1.35;1.10;;;;;;;;;;4896500;29;20036;-39
2022/11/08 03:52:01;;;;;;;3.67;1.80;;;;;;;;;;4896524;29;20025;-39
2022/11/08 03:54:27;;;;;;;3.10;1.30;;;;;;;;;;4896484;29;20040;-39
2022/11/08 03:56:52;;;;;;;1.60;1.10;;;;;;;;;;4896500;29;20031;-39
2022/11/08 03:59:17;;;;;;;3.05;1.25;;;;;;;;;;4896428;29;20115;-39
2022/11/08 04:01:43;;;;;;;1.77;1.20;;;;;;;;;;4896527;29;20056;-38
2022/11/08 04:04:08;;;;;;;3.63;1.77;;;;;;;;;;4896146;29;20477;-40
2022/11/08 04:06:34;;;;;;;2.97;1.35;;;;;;;;;;4896773;29;20025;-38
2022/11/08 04:09:00;;;;;;;1.15;0.70;;;;;;;;;;4895023;29;20444;-39
2022/11/08 04:16:53;;;;;;;1.67;1.27;;;;;;;;;;4896260;29;20048;-39
2022/11/08 04:22:05;;;;;;;10.05;2.45;;;;;;;;;;4896160;29;20044;-39
2022/11/08 04:24:30;;;;;;;3.50;1.42;;;;;;;;;;4896503;29;20028;-39
2022/11/08 04:26:56;;;;;;;12.48;2.40;;;;;;;;;;4896504;29;20040;-38
2022/11/08 04:29:21;;;;;;;11.73;2.55;;;;;;;;;;4896053;29;20495;-39
2022/11/08 04:31:46;;;;;;;4.05;1.90;;;;;;;;;;4896110;29;20079;-39
2022/11/08 04:34:12;;;;;;;6.97;1.13;;;;;;;;;;4896439;29;20048;-39
2022/11/08 04:36:37;;;;;;;9.02;2.50;;;;;;;;;;4896083;29;20122;-39
2022/11/08 04:39:03;;;;;;;3.03;1.65;;;;;;;;;;4896373;29;20385;-39
2022/11/08 04:41:28;;;;;;;3.53;1.85;;;;;;;;;;4896098;29;20403;-40
2022/11/08 04:43:54;;;;;;;2.17;1.20;;;;;;;;;;4899765;29;20032;-39
2022/11/08 04:46:23;;;;;;;1.52;1.08;;;;;;;;;;4900102;29;20446;-38
2022/11/08 04:48:50;;;;;;;2.28;1.70;;;;;;;;;;4899546;29;20036;-39
2022/11/08 04:51:17;;;;;;;4.40;1.50;;;;;;;;;;4899773;29;20036;-39
2022/11/08 04:53:43;;;;;;;5.97;1.60;;;;;;;;;;4899958;29;20391;-39
2022/11/08 04:56:10;;;;;;;3.38;1.55;;;;;;;;;;4899846;29;20108;-39
2022/11/08 04:58:36;;;;;;;4.70;1.75;;;;;;;;;;4899582;29;20032;-39
2022/11/08 05:01:03;;;;;;;3.13;1.73;;;;;;;;;;4899420;29;20035;-40
2022/11/08 05:03:29;;;;;;;3.22;1.40;;;;;;;;;;4899726;29;20104;-39
2022/11/08 05:05:54;;;;;;;5.53;1.90;;;;;;;;;;4899225;29;20144;-39
2022/11/08 05:08:20;;;;;;;4.43;2.45;;;;;;;;;;4899386;29;20068;-38
2022/11/08 05:10:45;;;;;;;6.28;2.85;;;;;;;;;;4899542;29;20065;-39
2022/11/08 05:13:11;;;;;;;5.03;1.90;;;;;;;;;;4899410;29;20500;-39
2022/11/08 05:15:36;;;;;;;5.88;2.22;;;;;;;;;;4899274;29;20128;-38
2022/11/08 05:18:01;;;;;;;3.58;1.95;;;;;;;;;;4899128;29;20034;-39
2022/11/08 05:23:22;;;;;;;3.42;1.80;;;;;;;;;;4899208;29;20060;-39
2022/11/08 05:25:48;;;;;;;2.97;2.03;;;;;;;;;;4899038;29;20024;-39
2022/11/08 05:28:14;;;;;;;2.08;1.70;;;;;;;;;;4899304;29;20622;-39
2022/11/08 05:30:39;;;;;;;1.65;1.00;;;;;;;;;;4899032;29;20115;-39
2022/11/08 05:33:04;;;;;;;2.92;1.10;;;;;;;;;;4898913;29;20041;-39
2022/11/08 05:35:31;;;;;;;5.13;1.58;;;;;;;;;;4899189;29;20128;-39
2022/11/08 05:37:57;;;;;;;2.88;1.60;;;;;;;;;;4899072;29;20024;-39
2022/11/08 05:40:22;;;;;;;2.10;1.65;;;;;;;;;;4898795;29;20041;-39
2022/11/08 05:42:47;;;;;;;2.90;1.50;;;;;;;;;;4898719;29;20032;-39
2022/11/08 05:45:13;;;;;;;1.65;0.90;;;;;;;;;;4899060;29;20079;-38
2022/11/08 05:47:42;;;;;;;5.30;1.65;;;;;;;;;;4898981;29;20044;-39
2022/11/08 05:50:07;;;;;;;2.50;1.58;;;;;;;;;;4898811;29;20045;-38
2022/11/08 05:52:33;;;;;;;3.08;1.75;;;;;;;;;;4898958;29;20027;-39
2022/11/08 05:54:58;;;;;;;2.50;1.40;;;;;;;;;;4897684;29;20036;-38
2022/11/08 05:57:24;;;;;;;3.53;2.38;;;;;;;;;;4898627;29;20025;-38
2022/11/08 05:59:49;;;;;;;3.22;1.55;;;;;;;;;;4898722;29;20138;-38
2022/11/08 06:02:15;;;;;;;2.38;1.55;;;;;;;;;;4898774;29;20384;-39
2022/11/08 06:04:40;;;;;;;8.85;2.33;;;;;;;;;;4898287;29;20055;-39
2022/11/08 06:07:06;;;;;;;4.30;1.52;;;;;;;;;;4898382;29;20037;-39
2022/11/08 06:09:31;;;;;;;2.90;1.63;;;;;;;;;;4898751;29;20052;-38
2022/11/08 06:11:57;;;;;;;2.42;1.80;;;;;;;;;;4898216;29;20040;-39
2022/11/08 06:14:22;;;;;;;5.47;2.13;;;;;;;;;;4898213;29;20044;-38
2022/11/08 06:16:48;;;;;;;2.55;1.20;;;;;;;;;;4898462;29;20119;-39
2022/11/08 06:19:13;;;;;;;1.80;1.55;;;;;;;;;;4898292;29;20037;-39
2022/11/08 06:21:38;;;;;;;3.33;1.67;;;;;;;;;;4898427;29;20027;-39
2022/11/08 06:24:04;;;;;;;1.92;1.45;;;;;;;;;;4898005;29;20071;-39
2022/11/08 06:26:29;;;;;;;1.63;1.20;;;;;;;;;;4898104;29;20027;-38
2022/11/08 06:28:55;;;;;;;4.40;2.33;;;;;;;;;;4897766;29;20043;-39
2022/11/08 06:31:20;;;;;;;1.73;1.30;;;;;;;;;;4898033;29;20024;-39
2022/11/08 06:33:46;;;;;;;2.05;1.33;;;;;;;;;;4897810;29;20092;-39
2022/11/08 06:36:11;;;;;;;1.67;1.13;;;;;;;;;;4897793;29;20024;-39
2022/11/08 06:38:37;;;;;;;2.35;1.15;;;;;;;;;;4897844;29;20033;-39
2022/11/08 06:41:02;;;;;;;3.70;1.27;;;;;;;;;;4896461;29;20039;-39
2022/11/08 06:43:28;;;;;;;1.45;0.98;;;;;;;;;;4897970;29;20112;-39
2022/11/08 06:45:53;;;;;;;1.33;1.13;;;;;;;;;;4897519;29;20024;-39
2022/11/08 06:48:19;;;;;;;2.63;1.38;;;;;;;;;;4897897;29;20036;-38
2022/11/08 06:50:44;;;;;;;3.85;2.22;;;;;;;;;;4897674;29;20472;-39
2022/11/08 06:53:11;;;;;;;3.60;1.70;;;;;;;;;;4897517;29;20028;-39
2022/11/08 06:55:37;;;;;;;6.35;2.42;;;;;;;;;;4897715;29;20080;-39
2022/11/08 06:58:03;;;;;;;3.47;1.38;;;;;;;;;;4897372;29;20036;-39
2022/11/08 07:00:28;;;;;;;5.30;2.42;;;;;;;;;;4896108;29;20408;-39
2022/11/08 07:02:54;;;;;;;5.10;2.30;;;;;;;;;;4897335;29;20033;-38
2022/11/08 07:05:20;;;;;;;10.38;2.25;;;;;;;;;;4896892;29;20056;-39
2022/11/08 07:07:50;;;;;;;4.55;2.40;;;;;;;;;;4897232;29;20033;-39
2022/11/08 07:10:17;;;;;;;3.40;1.42;;;;;;;;;;4896123;29;20159;-39
2022/11/08 07:12:42;;;;;;;2.10;1.20;;;;;;;;;;4897621;29;20025;-39
2022/11/08 07:15:08;;;;;;;4.97;2.28;;;;;;;;;;4897108;29;20483;-39
2022/11/08 07:17:33;;;;;;;2.30;1.08;;;;;;;;;;4897166;29;20024;-39
2022/11/08 07:19:59;;;;;;;2.75;1.35;;;;;;;;;;4897004;29;20036;-39
2022/11/08 07:22:24;;;;;;;2.33;1.48;;;;;;;;;;4896972;29;20491;-38
2022/11/08 07:24:50;;;;;;;4.30;2.00;;;;;;;;;;4897253;29;20036;-38
2022/11/08 07:27:15;;;;;;;3.20;1.80;;;;;;;;;;4896913;29;20025;-39
2022/11/08 07:29:40;;;;;;;3.55;1.90;;;;;;;;;;4896930;29;20048;-39
2022/11/08 07:32:06;;;;;;;4.05;1.90;;;;;;;;;;4896867;29;20040;-39
2022/11/08 07:34:32;;;;;;;2.53;1.65;;;;;;;;;;4896797;29;20498;-38
2022/11/08 07:36:57;;;;;;;4.75;1.77;;;;;;;;;;4897060;29;20028;-39
2022/11/08 07:39:23;;;;;;;2.25;1.10;;;;;;;;;;4896809;29;20519;-38
2022/11/08 07:41:48;;;;;;;3.88;1.85;;;;;;;;;;4896550;29;20028;-38
2022/11/08 07:44:14;;;;;;;3.03;1.02;;;;;;;;;;4896821;29;20480;-38
2022/11/08 07:46:39;;;;;;;2.92;1.63;;;;;;;;;;4896933;29;20092;-39
2022/11/08 07:49:05;;;;;;;2.03;1.00;;;;;;;;;;4896498;29;20380;-39
2022/11/08 07:51:30;;;;;;;4.32;1.30;;;;;;;;;;4896669;29;20076;-38
2022/11/08 07:53:55;;;;;;;3.70;1.60;;;;;;;;;;4896400;29;20127;-39
2022/11/08 07:56:21;;;;;;;3.80;1.80;;;;;;;;;;4896793;29;20029;-38
2022/11/08 07:58:46;;;;;;;6.40;2.75;;;;;;;;;;4896404;29;20085;-39
2022/11/08 08:01:12;;;;;;;2.03;1.50;;;;;;;;;;4895451;29;20025;-38
2022/11/08 08:03:37;;;;;;;4.68;1.95;;;;;;;;;;4896484;29;20068;-39
2022/11/08 08:06:03;;;;;;;9.55;2.45;;;;;;;;;;4896153;29;20547;-39
2022/11/08 08:08:28;;;;;;;2.30;1.05;;;;;;;;;;4896337;29;20039;-39
2022/11/08 08:10:59;;;;;;;3.90;1.65;;;;;;;;;;4896343;29;20464;-38
2022/11/08 08:13:24;;;;;;;4.82;1.75;;;;;;;;;;4896370;29;20032;-38
2022/11/08 08:15:50;;;;;;;3.25;1.17;;;;;;;;;;4896337;29;20029;-39
2022/11/08 08:18:18;;;;;;;3.53;1.85;;;;;;;;;;4900726;29;20037;-39
2022/11/08 08:20:45;;;;;;;2.63;1.67;;;;;;;;;;4902609;29;20028;-38
2022/11/08 08:23:10;;;;;;;2.10;1.23;;;;;;;;;;4902513;29;20051;-39
2022/11/08 08:25:36;;;;;;;6.35;2.33;;;;;;;;;;4902469;29;20021;-39
2022/11/08 08:28:01;;;;;;;3.08;1.67;;;;;;;;;;4902511;29;20036;-39
2022/11/08 08:30:28;;;;;;;1.67;1.00;;;;;;;;;;4902449;29;20028;-39
2022/11/08 08:33:00;;;;;;;1.15;1.05;;;;;;;;;;4902437;29;20040;-38
2022/11/08 08:35:25;;;;;;;2.05;1.33;;;;;;;;;;4902499;29;20064;-38
2022/11/08 08:37:51;;;;;;;1.90;1.25;;;;;;;;;;4902319;29;20114;-39
2022/11/08 08:40:16;;;;;;;3.35;1.85;;;;;;;;;;4902455;29;20032;-39
2022/11/08 08:42:42;;;;;;;2.75;1.52;;;;;;;;;;4902672;29;20041;-39
2022/11/08 08:45:08;;;;;;;2.28;1.63;;;;;;;;;;4902269;29;20064;-38
2022/11/08 08:47:34;;;;;;;1.70;1.30;;;;;;;;;;4902534;29;20027;-38
2022/11/08 08:49:59;;;;;;;2.63;1.25;;;;;;;;;;4902226;29;20045;-39
2022/11/08 08:52:25;;;;;;;3.95;2.25;;;;;;;;;;4900976;29;20102;-39
2022/11/08 08:54:50;;;;;;;4.25;2.15;;;;;;;;;;4902233;29;20036;-38
2022/11/08 08:57:15;;;;;;;3.20;1.92;;;;;;;;;;4902280;29;20518;-39
2022/11/08 08:59:41;;;;;;;3.83;2.28;;;;;;;;;;4902192;29;20037;-39
2022/11/08 09:02:07;;;;;;;4.75;1.80;;;;;;;;;;4902173;29;20096;-39
2022/11/08 09:04:34;;;;;;;2.50;1.33;;;;;;;;;;4901999;29;20087;-39
2022/11/08 09:07:00;;;;;;;3.17;2.10;;;;;;;;;;4902340;29;20031;-39
2022/11/08 09:09:25;;;;;;;3.33;1.70;;;;;;;;;;4900880;29;20048;-38
2022/11/08 09:11:51;;;;;;;5.85;1.80;;;;;;;;;;4902052;29;20020;-39
2022/11/08 09:14:16;;;;;;;2.88;1.75;;;;;;;;;;4902330;29;20036;-39
2022/11/08 09:16:41;;;;;;;3.38;1.92;;;;;;;;;;4902210;29;20055;-39
2022/11/08 09:19:07;;;;;;;3.53;2.20;;;;;;;;;;4902380;29;20092;-39
2022/11/08 09:21:32;;;;;;;2.95;1.85;;;;;;;;;;4902005;29;20024;-39
2022/11/08 09:23:57;;;;;;;2.50;2.25;;;;;;;;;;4902226;29;20072;-39
2022/11/08 09:26:23;;;;;;;3.30;1.77;;;;;;;;;;4900832;29;20458;-39
2022/11/08 09:28:48;;;;;;;4.57;2.38;;;;;;;;;;4900209;29;20047;-39
2022/11/08 09:31:14;;;;;;;3.13;1.63;;;;;;;;;;4899393;29;20431;-39
2022/11/08 09:33:40;;;;;;;2.00;0.80;;;;;;;;;;4898963;29;20028;-38
2022/11/08 09:36:06;;;;;;;4.20;1.48;;;;;;;;;;4899239;29;20459;-39
2022/11/08 09:38:32;;;;;;;4.10;1.52;;;;;;;;;;4899238;29;20068;-39
2022/11/08 09:40:57;;;;;;;2.00;0.90;;;;;;;;;;4899031;29;20491;-39
2022/11/08 09:43:45;;;;;;;3.00;1.73;;;;;;;;;;4898899;29;20438;-39
2022/11/08 09:46:15;;;;;;;1.50;1.08;;;;;;;;;;4898810;29;20032;-39
2022/11/08 09:48:41;;;;;;;2.13;1.05;;;;;;;;;;4898858;29;20396;-39
2022/11/08 09:51:19;;;;;;;2.35;1.00;;;;;;;;;;4898844;29;20751;-39
2022/11/08 09:53:50;;;;;;;1.77;1.23;;;;;;;;;;4898702;29;20025;-39
2022/11/08 09:56:27;;;;;;;1.85;1.23;;;;;;;;;;4898573;29;20471;-39
2022/11/08 09:58:54;;;;;;;1.65;1.30;;;;;;;;;;4898551;29;20665;-39
2022/11/08 10:01:20;;;;;;;1.02;0.77;;;;;;;;;;4898525;29;20012;-39
2022/11/08 10:03:47;;;;;;;2.70;1.35;;;;;;;;;;4897232;29;20066;-39
2022/11/08 10:06:12;;;;;;;1.77;1.45;;;;;;;;;;4898321;29;20049;-39
2022/11/08 10:08:41;;;;;;;4.65;2.15;;;;;;;;;;4898350;29;20182;-39
2022/11/08 10:11:22;;;;;;;1.60;1.13;;;;;;;;;;4898247;29;20043;-39
2022/11/08 10:13:47;;;;;;;2.58;1.02;;;;;;;;;;4898303;29;20096;-39
2022/11/08 10:16:13;;;;;;;2.03;1.40;;;;;;;;;;4898415;29;20029;-39
2022/11/08 10:18:57;;;;;;;4.07;1.65;;;;;;;;;;4898222;29;20539;-39
2022/11/08 10:21:34;;;;;;;2.78;1.30;;;;;;;;;;4898386;29;20052;-39
2022/11/08 10:24:08;;;;;;;1.83;1.45;;;;;;;;;;4898218;29;20040;-39
2022/11/08 10:26:35;;;;;;;6.95;1.13;;;;;;;;;;4898091;29;20504;-40
2022/11/08 10:29:05;;;;;;;9.05;1.13;;;;;;;;;;4898004;29;20032;-39
2022/11/08 10:31:34;;;;;;;2.40;0.98;;;;;;;;;;4897953;29;20126;-39
2022/11/08 10:34:00;;;;;;;2.35;1.60;;;;;;;;;;4898137;29;20032;-39
2022/11/08 10:36:33;;;;;;;4.50;1.20;;;;;;;;;;4898174;29;20040;-39
2022/11/08 10:38:59;;;;;;;;;;;;;;;;;;4898092;29;20124;-39
2022/11/08 10:41:24;;;;;;;1.65;0.98;;;;;;;;;;4897386;29;19994;-39
2022/11/08 10:43:57;;;;;;;5.00;2.47;;;;;;;;;;4897864;29;20036;-40
2022/11/08 10:46:28;;;;;;;3.70;1.98;;;;;;;;;;4898007;29;20083;-39
2022/11/08 10:48:56;;;;;;;4.30;1.77;;;;;;;;;;4897541;29;20072;-39
2022/11/08 10:51:21;;;;;;;4.40;1.83;;;;;;;;;;4897696;29;20017;-38
2022/11/08 10:53:47;;;;;;;7.78;1.67;;;;;;;;;;4897484;29;20036;-41
2022/11/08 10:56:13;;;;;;;3.80;1.70;;;;;;;;;;4897689;29;20230;-38
2022/11/08 10:58:40;;;;;;;7.15;1.98;;;;;;;;;;4897570;29;20357;-39
2022/11/08 11:01:11;;;;;;;7.32;1.80;;;;;;;;;;4897240;29;20035;-39
2022/11/08 11:03:37;;;;;;;13.82;3.33;;;;;;;;;;4897394;29;20024;-39
2022/11/08 11:06:04;;;;;;;5.13;2.80;;;;;;;;;;4897110;29;20075;-39
2022/11/08 11:08:30;;;;;;;7.10;2.50;;;;;;;;;;4897177;29;20496;-38
2022/11/08 11:11:09;;;;;;;6.90;2.83;;;;;;;;;;4897211;29;20036;-38
2022/11/08 11:13:34;;;;;;;5.93;2.25;;;;;;;;;;4897149;29;20468;-38
2022/11/08 11:16:03;;;;;;;4.13;1.95;;;;;;;;;;4897109;29;20028;-39
2022/11/08 11:18:32;;;;;;;2.88;1.67;;;;;;;;;;4896212;29;20372;-38
2022/11/08 11:20:59;;;;;;;5.45;2.28;;;;;;;;;;4897068;29;20020;-38
2022/11/08 11:23:31;;;;;;;7.47;2.75;;;;;;;;;;4897009;29;20032;-39
2022/11/08 11:25:57;;;;;;;4.60;2.30;;;;;;;;;;4896989;29;20039;-38
2022/11/08 11:28:22;;;;;;;5.07;2.15;;;;;;;;;;4896877;29;20032;-40
2022/11/08 11:30:58;;;;;;;3.10;1.88;;;;;;;;;;4896860;29;20076;-39
2022/11/08 11:33:25;;;;;;;7.88;3.72;;;;;;;;;;4897124;29;20029;-39
2022/11/08 11:35:59;;;;;;;11.05;2.83;;;;;;;;;;4897069;29;20029;-39
2022/11/08 11:38:34;;;;;;;6.13;2.25;;;;;;;;;;4896754;29;20482;-39
2022/11/08 11:41:03;;;;;;;7.75;3.05;;;;;;;;;;4896721;29;20033;-39
2022/11/08 11:43:48;;;;;;;4.72;2.50;;;;;;;;;;4896657;29;20029;-39
2022/11/08 11:46:16;;;;;;;7.57;2.88;;;;;;;;;;4867574;29;20040;-39
2022/11/08 11:48:46;;;;;;;6.88;2.83;;;;;;;;;;4896528;29;20048;-40
2022/11/08 11:51:12;;;;;;;7.20;3.00;;;;;;;;;;4896293;29;20805;-39
2022/11/08 11:53:38;;;;;;;5.07;3.17;;;;;;;;;;4896611;29;20040;-38
2022/11/08 11:56:13;;;;;;;6.93;2.53;;;;;;;;;;4896415;29;20043;-39
2022/11/08 11:58:49;;;;;;;10.35;2.78;;;;;;;;;;4896723;29;20116;-40
2022/11/08 12:01:35;;;;;;;9.32;3.22;;;;;;;;;;4896689;29;20096;-39
2022/11/08 12:04:10;;;;;;;7.68;5.00;;;;;;;;;;4886139;29;20040;-39
2022/11/08 12:06:35;;;;;;;6.55;2.83;;;;;;;;;;4896611;29;20131;-39
2022/11/08 12:09:11;;;;;;;5.10;2.72;;;;;;;;;;4896524;29;20061;-39
2022/11/08 12:11:42;;;;;;;7.57;4.18;;;;;;;;;;4896579;29;20052;-39
2022/11/08 12:14:08;;;;;;;5.90;3.13;;;;;;;;;;4896518;29;20037;-39
2022/11/08 12:16:37;;;;;;;12.38;4.05;;;;;;;;;;4896601;29;20379;-39
2022/11/08 12:19:25;;;;;;;7.18;3.75;;;;;;;;;;4896151;29;20452;-40
2022/11/08 12:22:09;;;;;;;7.25;3.55;;;;;;;;;;4896397;29;20044;-39
2022/11/08 12:24:35;;;;;;;12.00;4.40;;;;;;;;;;4896471;29;20032;-39
2022/11/08 12:27:19;;;;;;;4.40;3.28;;;;;;;;;;4896388;29;20376;-39
2022/11/08 12:29:44;;;;;;;7.47;3.97;;;;;;;;;;4896110;29;20040;-40
2022/11/08 12:32:28;;;;;;;8.25;3.38;;;;;;;;;;4896095;29;20021;-39
2022/11/08 12:35:23;;;;;;;18.95;5.53;;;;;;;;;;4896020;29;20079;-40
2022/11/08 12:37:52;;;;;;;12.85;3.22;;;;;;;;;;4883972;29;20411;-39
2022/11/08 12:40:24;;;;;;;8.70;3.60;;;;;;;;;;4896135;29;20112;-39
2022/11/08 12:43:01;;;;;;;12.27;4.93;;;;;;;;;;4896370;29;20104;-39
2022/11/08 12:45:50;;;;;;;4.78;2.33;;;;;;;;;;4894925;29;20050;-38
2022/11/08 12:48:19;;;;;;;10.65;4.70;;;;;;;;;;4888383;29;20072;-39
2022/11/08 12:50:53;;;;;;;11.30;4.18;;;;;;;;;;4896167;29;20425;-39
2022/11/08 12:53:31;;;;;;;8.57;3.75;;;;;;;;;;4896217;29;20024;-39
2022/11/08 12:55:57;;;;;;;14.55;4.80;;;;;;;;;;4895954;29;20028;-38
2022/11/08 12:58:38;;;;;;;11.82;4.15;;;;;;;;;;4896010;29;20025;-38
2022/11/08 13:01:05;;;;;;;8.63;4.38;;;;;;;;;;4895887;29;20523;-38
2022/11/08 13:03:39;;;;;;;8.90;4.30;;;;;;;;;;4897464;29;20482;-39
2022/11/08 13:06:09;;;;;;;15.32;5.57;;;;;;;;;;4899378;29;20148;-39
2022/11/08 13:08:47;;;;;;;16.73;5.63;;;;;;;;;;4899667;29;20028;-39
2022/11/08 13:11:18;;;;;;;6.20;4.15;;;;;;;;;;4899392;29;20056;-39
2022/11/08 13:13:46;;;;;;;12.88;3.65;;;;;;;;;;4899558;29;20041;-39
2022/11/08 13:16:14;;;;;;;6.90;3.85;;;;;;;;;;4899283;29;20076;-39
2022/11/08 13:18:46;;;;;;;10.43;3.90;;;;;;;;;;4899303;29;20100;-38
2022/11/08 13:21:27;;;;;;;10.70;4.38;;;;;;;;;;4899235;29;20024;-39
2022/11/08 13:23:54;;;;;;;7.82;4.50;;;;;;;;;;4899530;29;20029;-39
2022/11/08 13:26:21;;;;;;;9.85;4.43;;;;;;;;;;4899408;29;20028;-39
2022/11/08 13:28:47;;;;;;;12.07;4.45;;;;;;;;;;4898993;29;20032;-39
2022/11/08 13:31:12;;;;;;;13.13;4.15;;;;;;;;;;4899284;29;20031;-39
2022/11/08 13:33:42;;;;;;;12.55;5.57;;;;;;;;;;4897732;29;20039;-39
2022/11/08 13:36:14;;;;;;;14.88;5.75;;;;;;;;;;4899073;29;20483;-39
2022/11/08 13:38:58;;;;;;;7.10;3.55;;;;;;;;;;4899077;29;20024;-39
2022/11/08 13:41:24;;;;;;;15.23;4.70;;;;;;;;;;4897686;29;20040;-39
2022/11/08 13:43:52;;;;;;;10.38;4.22;;;;;;;;;;4898795;29;20029;-39
2022/11/08 13:46:28;;;;;;;17.17;5.53;;;;;;;;;;4899051;29;20488;-39
2022/11/08 13:48:57;;;;;;;8.88;4.88;;;;;;;;;;4898566;29;20536;-39
2022/11/08 13:51:25;;;;;;;9.82;4.47;;;;;;;;;;4898805;29;20060;-39
2022/11/08 13:53:56;;;;;;;8.20;4.75;;;;;;;;;;4898928;29;20044;-39
2022/11/08 13:56:42;;;;;;;6.47;3.58;;;;;;;;;;4898860;29;20029;-39
2022/11/08 13:59:26;;;;;;;7.20;4.28;;;;;;;;;;4898727;29;20357;-39
2022/11/08 14:01:56;;;;;;;7.20;5.43;;;;;;;;;;4898581;29;20033;-39
2022/11/08 14:04:26;;;;;;;10.27;5.10;;;;;;;;;;4898456;29;20096;-39
2022/11/08 14:07:11;;;;;;;12.15;4.75;;;;;;;;;;4898518;29;20083;-39
2022/11/08 14:09:37;;;;;;;11.82;4.88;;;;;;;;;;4898522;29;20547;-39
2022/11/08 14:12:05;;;;;;;11.43;5.63;;;;;;;;;;4898533;29;20099;-38
2022/11/08 14:14:43;;;;;;;7.55;4.20;;;;;;;;;;4897373;29;20045;-38
2022/11/08 14:17:08;;;;;;;10.07;3.75;;;;;;;;;;4898243;29;20108;-39
2022/11/08 14:19:36;;;;;;;7.50;3.90;;;;;;;;;;4898435;29;20519;-38
2022/11/08 14:22:02;;;;;;;4.05;3.10;;;;;;;;;;4898230;29;20033;-39
2022/11/08 14:24:35;;;;;;;5.95;4.03;;;;;;;;;;4898153;29;20084;-39
2022/11/08 14:27:00;;;;;;;;;;;;;;;;;;4898242;29;20392;-38
2022/11/08 14:29:26;;;;;;;9.80;3.90;;;;;;;;;;4898127;29;19922;-39
2022/11/08 14:32:03;;;;;;;4.72;2.28;;;;;;;;;;4897927;29;20033;-38
2022/11/08 14:34:29;;;;;;;7.47;3.53;;;;;;;;;;4898080;29;20036;-39
2022/11/08 14:36:55;;;;;;;9.52;3.53;;;;;;;;;;4897940;29;20114;-38
2022/11/08 14:39:24;;;;;;;7.35;4.50;;;;;;;;;;4897955;29;20029;-39
2022/11/08 14:41:54;;;;;;;6.13;3.78;;;;;;;;;;4896563;29;20528;-39
2022/11/08 14:44:20;;;;;;;6.50;2.67;;;;;;;;;;4897792;29;20038;-39
2022/11/08 14:46:46;;;;;;;7.10;4.15;;;;;;;;;;4897890;29;20288;-39
2022/11/08 14:49:12;;;;;;;9.98;3.85;;;;;;;;;;4897504;29;20052;-40
2022/11/08 14:51:38;;;;;;;6.55;3.60;;;;;;;;;;4897708;29;20100;-39
2022/11/08 14:54:17;;;;;;;6.18;3.17;;;;;;;;;;4897483;29;20075;-39
2022/11/08 14:56:44;;;;;;;8.57;3.70;;;;;;;;;;4897547;29;20092;-39
2022/11/08 14:59:10;;;;;;;10.57;4.65;;;;;;;;;;4897328;29;20028;-39
2022/11/08 15:01:36;;;;;;;5.03;2.85;;;;;;;;;;4897430;29;20033;-38
2022/11/08 15:04:04;;;;;;;11.95;4.35;;;;;;;;;;4897168;29;20036;-39
2022/11/08 15:06:31;;;;;;;10.10;3.35;;;;;;;;;;4897477;29;20061;-39